sensor_id;sensor_type;location;lat;lon;timestamp;P1;durP1;ratioP1;P2;durP2;ratioP2
41323;SDS011;27073;51.128;4.220;2022-09-09T00:01:10;6.13;;;2.22;;
41323;SDS011;27073;51.128;4.220;2022-09-09T00:09:29;6.38;;;2.15;;
41323;SDS011;27073;51.128;4.220;2022-09-09T00:12:12;5.65;;;2.03;;
41323;SDS011;27073;51.128;4.220;2022-09-09T00:14:55;6.13;;;2.42;;
41323;SDS011;27073;51.128;4.220;2022-09-09T00:20:12;4.70;;;1.55;;
41323;SDS011;27073;51.128;4.220;2022-09-09T00:22:49;4.85;;;1.88;;
41323;SDS011;27073;51.128;4.220;2022-09-09T00:25:34;6.23;;;1.60;;
41323;SDS011;27073;51.128;4.220;2022-09-09T00:28:15;6.65;;;1.90;;
41323;SDS011;27073;51.128;4.220;2022-09-09T00:30:44;6.25;;;1.75;;
41323;SDS011;27073;51.128;4.220;2022-09-09T00:35:56;5.57;;;1.67;;
41323;SDS011;27073;51.128;4.220;2022-09-09T00:40:58;5.25;;;1.67;;
41323;SDS011;27073;51.128;4.220;2022-09-09T00:43:29;4.60;;;1.65;;
41323;SDS011;27073;51.128;4.220;2022-09-09T00:46:01;8.07;;;1.80;;
41323;SDS011;27073;51.128;4.220;2022-09-09T00:57:04;5.68;;;1.30;;
41323;SDS011;27073;51.128;4.220;2022-09-09T00:59:51;6.10;;;1.77;;
41323;SDS011;27073;51.128;4.220;2022-09-09T01:04:51;8.77;;;2.00;;
41323;SDS011;27073;51.128;4.220;2022-09-09T01:07:18;5.20;;;1.60;;
41323;SDS011;27073;51.128;4.220;2022-09-09T01:09:52;4.95;;;1.33;;
41323;SDS011;27073;51.128;4.220;2022-09-09T01:17:50;7.97;;;2.38;;
41323;SDS011;27073;51.128;4.220;2022-09-09T01:20:47;4.30;;;1.33;;
41323;SDS011;27073;51.128;4.220;2022-09-09T01:28:59;4.57;;;1.17;;
41323;SDS011;27073;51.128;4.220;2022-09-09T01:31:41;9.10;;;1.73;;
41323;SDS011;27073;51.128;4.220;2022-09-09T01:34:20;7.22;;;1.85;;
41323;SDS011;27073;51.128;4.220;2022-09-09T01:37:20;6.45;;;1.98;;
41323;SDS011;27073;51.128;4.220;2022-09-09T01:39:40;4.88;;;1.75;;
41323;SDS011;27073;51.128;4.220;2022-09-09T01:42:11;6.70;;;1.45;;
41323;SDS011;27073;51.128;4.220;2022-09-09T01:44:40;5.97;;;1.80;;
41323;SDS011;27073;51.128;4.220;2022-09-09T01:47:06;4.65;;;1.98;;
41323;SDS011;27073;51.128;4.220;2022-09-09T01:49:34;5.80;;;2.03;;
41323;SDS011;27073;51.128;4.220;2022-09-09T01:52:08;6.25;;;2.03;;
41323;SDS011;27073;51.128;4.220;2022-09-09T01:54:36;6.78;;;2.28;;
41323;SDS011;27073;51.128;4.220;2022-09-09T01:57:19;6.25;;;2.50;;
41323;SDS011;27073;51.128;4.220;2022-09-09T02:00:09;5.32;;;1.92;;
41323;SDS011;27073;51.128;4.220;2022-09-09T02:08:38;6.22;;;2.80;;
41323;SDS011;27073;51.128;4.220;2022-09-09T02:11:13;9.90;;;3.38;;
41323;SDS011;27073;51.128;4.220;2022-09-09T02:13:47;7.00;;;2.55;;
41323;SDS011;27073;51.128;4.220;2022-09-09T02:17:18;8.85;;;3.25;;
41323;SDS011;27073;51.128;4.220;2022-09-09T02:19:23;7.82;;;2.80;;
41323;SDS011;27073;51.128;4.220;2022-09-09T02:22:20;9.65;;;2.97;;
41323;SDS011;27073;51.128;4.220;2022-09-09T02:24:49;6.45;;;2.88;;
41323;SDS011;27073;51.128;4.220;2022-09-09T02:27:23;8.77;;;3.00;;
41323;SDS011;27073;51.128;4.220;2022-09-09T02:29:51;8.32;;;2.97;;
41323;SDS011;27073;51.128;4.220;2022-09-09T02:32:27;6.10;;;3.35;;
41323;SDS011;27073;51.128;4.220;2022-09-09T02:34:58;7.75;;;2.97;;
41323;SDS011;27073;51.128;4.220;2022-09-09T02:37:29;8.45;;;2.55;;
41323;SDS011;27073;51.128;4.220;2022-09-09T02:40:03;9.90;;;3.05;;
41323;SDS011;27073;51.128;4.220;2022-09-09T02:42:41;9.27;;;2.85;;
41323;SDS011;27073;51.128;4.220;2022-09-09T02:45:11;6.70;;;2.60;;
41323;SDS011;27073;51.128;4.220;2022-09-09T02:53:49;8.85;;;2.75;;
41323;SDS011;27073;51.128;4.220;2022-09-09T02:56:25;11.00;;;2.53;;
41323;SDS011;27073;51.128;4.220;2022-09-09T02:58:57;7.72;;;2.50;;
41323;SDS011;27073;51.128;4.220;2022-09-09T03:01:24;10.45;;;2.92;;
41323;SDS011;27073;51.128;4.220;2022-09-09T03:03:49;11.00;;;2.35;;
41323;SDS011;27073;51.128;4.220;2022-09-09T03:06:17;7.75;;;2.03;;
41323;SDS011;27073;51.128;4.220;2022-09-09T03:08:47;6.75;;;2.10;;
41323;SDS011;27073;51.128;4.220;2022-09-09T03:11:16;7.25;;;2.25;;
41323;SDS011;27073;51.128;4.220;2022-09-09T03:13:42;9.82;;;2.05;;
41323;SDS011;27073;51.128;4.220;2022-09-09T03:16:09;7.47;;;1.85;;
41323;SDS011;27073;51.128;4.220;2022-09-09T03:18:41;7.57;;;2.00;;
41323;SDS011;27073;51.128;4.220;2022-09-09T03:21:07;7.65;;;2.55;;
41323;SDS011;27073;51.128;4.220;2022-09-09T03:23:35;8.15;;;2.15;;
41323;SDS011;27073;51.128;4.220;2022-09-09T03:26:02;6.47;;;2.10;;
41323;SDS011;27073;51.128;4.220;2022-09-09T03:28:37;9.63;;;2.42;;
41323;SDS011;27073;51.128;4.220;2022-09-09T03:31:05;9.98;;;2.45;;
41323;SDS011;27073;51.128;4.220;2022-09-09T03:33:36;13.93;;;2.63;;
41323;SDS011;27073;51.128;4.220;2022-09-09T03:36:04;7.40;;;1.67;;
41323;SDS011;27073;51.128;4.220;2022-09-09T03:38:31;10.40;;;2.38;;
41323;SDS011;27073;51.128;4.220;2022-09-09T03:40:57;14.27;;;2.58;;
41323;SDS011;27073;51.128;4.220;2022-09-09T03:43:24;10.63;;;2.33;;
41323;SDS011;27073;51.128;4.220;2022-09-09T03:45:52;9.25;;;1.95;;
41323;SDS011;27073;51.128;4.220;2022-09-09T03:48:19;13.38;;;2.35;;
41323;SDS011;27073;51.128;4.220;2022-09-09T03:50:47;13.05;;;3.22;;
41323;SDS011;27073;51.128;4.220;2022-09-09T03:53:15;8.48;;;1.80;;
41323;SDS011;27073;51.128;4.220;2022-09-09T03:55:45;13.15;;;1.92;;
41323;SDS011;27073;51.128;4.220;2022-09-09T03:58:13;12.10;;;2.80;;
41323;SDS011;27073;51.128;4.220;2022-09-09T04:00:40;11.30;;;1.80;;
41323;SDS011;27073;51.128;4.220;2022-09-09T04:03:08;10.27;;;2.17;;
41323;SDS011;27073;51.128;4.220;2022-09-09T04:05:35;7.10;;;1.98;;
41323;SDS011;27073;51.128;4.220;2022-09-09T04:08:08;10.27;;;2.17;;
41323;SDS011;27073;51.128;4.220;2022-09-09T04:10:36;8.38;;;2.20;;
41323;SDS011;27073;51.128;4.220;2022-09-09T04:13:04;9.75;;;2.15;;
41323;SDS011;27073;51.128;4.220;2022-09-09T04:15:30;10.10;;;2.28;;
41323;SDS011;27073;51.128;4.220;2022-09-09T04:17:57;9.27;;;2.53;;
41323;SDS011;27073;51.128;4.220;2022-09-09T04:20:23;11.57;;;2.15;;
41323;SDS011;27073;51.128;4.220;2022-09-09T04:22:49;10.75;;;2.92;;
41323;SDS011;27073;51.128;4.220;2022-09-09T04:25:14;9.02;;;1.90;;
41323;SDS011;27073;51.128;4.220;2022-09-09T04:27:40;8.40;;;1.70;;
41323;SDS011;27073;51.128;4.220;2022-09-09T04:30:07;12.82;;;2.10;;
41323;SDS011;27073;51.128;4.220;2022-09-09T04:32:33;10.23;;;1.90;;
41323;SDS011;27073;51.128;4.220;2022-09-09T04:35:01;10.00;;;1.77;;
41323;SDS011;27073;51.128;4.220;2022-09-09T04:37:27;10.68;;;2.65;;
41323;SDS011;27073;51.128;4.220;2022-09-09T04:39:54;7.90;;;2.03;;
41323;SDS011;27073;51.128;4.220;2022-09-09T04:42:20;14.55;;;1.98;;
41323;SDS011;27073;51.128;4.220;2022-09-09T04:44:46;12.00;;;2.75;;
41323;SDS011;27073;51.128;4.220;2022-09-09T04:47:12;12.35;;;2.53;;
41323;SDS011;27073;51.128;4.220;2022-09-09T04:49:39;10.30;;;2.38;;
41323;SDS011;27073;51.128;4.220;2022-09-09T04:52:06;8.90;;;1.88;;
41323;SDS011;27073;51.128;4.220;2022-09-09T04:54:35;11.23;;;2.20;;
41323;SDS011;27073;51.128;4.220;2022-09-09T04:57:00;12.38;;;2.92;;
41323;SDS011;27073;51.128;4.220;2022-09-09T04:59:27;8.27;;;1.73;;
41323;SDS011;27073;51.128;4.220;2022-09-09T05:01:55;10.48;;;2.08;;
41323;SDS011;27073;51.128;4.220;2022-09-09T05:04:21;6.90;;;2.25;;
41323;SDS011;27073;51.128;4.220;2022-09-09T05:06:47;16.42;;;2.08;;
41323;SDS011;27073;51.128;4.220;2022-09-09T05:09:13;11.32;;;2.33;;
41323;SDS011;27073;51.128;4.220;2022-09-09T05:11:40;11.80;;;2.03;;
41323;SDS011;27073;51.128;4.220;2022-09-09T05:14:16;11.18;;;2.92;;
41323;SDS011;27073;51.128;4.220;2022-09-09T05:16:44;8.75;;;1.77;;
41323;SDS011;27073;51.128;4.220;2022-09-09T05:19:10;13.80;;;2.28;;
41323;SDS011;27073;51.128;4.220;2022-09-09T05:21:46;8.93;;;1.85;;
41323;SDS011;27073;51.128;4.220;2022-09-09T05:24:14;13.35;;;2.28;;
41323;SDS011;27073;51.128;4.220;2022-09-09T05:26:41;14.85;;;2.45;;
41323;SDS011;27073;51.128;4.220;2022-09-09T05:29:08;12.20;;;2.78;;
41323;SDS011;27073;51.128;4.220;2022-09-09T05:31:34;12.02;;;2.53;;
41323;SDS011;27073;51.128;4.220;2022-09-09T05:34:03;8.95;;;2.05;;
41323;SDS011;27073;51.128;4.220;2022-09-09T05:36:29;8.63;;;2.00;;
41323;SDS011;27073;51.128;4.220;2022-09-09T05:38:55;14.25;;;2.05;;
41323;SDS011;27073;51.128;4.220;2022-09-09T05:41:24;10.73;;;2.58;;
41323;SDS011;27073;51.128;4.220;2022-09-09T05:43:53;9.77;;;1.98;;
41323;SDS011;27073;51.128;4.220;2022-09-09T05:46:20;8.88;;;2.03;;
41323;SDS011;27073;51.128;4.220;2022-09-09T05:48:50;7.97;;;1.53;;
41323;SDS011;27073;51.128;4.220;2022-09-09T05:51:21;12.75;;;2.08;;
41323;SDS011;27073;51.128;4.220;2022-09-09T05:53:50;14.55;;;2.38;;
41323;SDS011;27073;51.128;4.220;2022-09-09T05:56:18;12.90;;;1.95;;
41323;SDS011;27073;51.128;4.220;2022-09-09T05:58:51;10.70;;;2.47;;
41323;SDS011;27073;51.128;4.220;2022-09-09T06:01:22;10.23;;;1.98;;
41323;SDS011;27073;51.128;4.220;2022-09-09T06:03:50;11.07;;;2.80;;
41323;SDS011;27073;51.128;4.220;2022-09-09T06:06:18;8.20;;;1.50;;
41323;SDS011;27073;51.128;4.220;2022-09-09T06:08:46;6.97;;;1.85;;
41323;SDS011;27073;51.128;4.220;2022-09-09T06:11:15;9.10;;;2.03;;
41323;SDS011;27073;51.128;4.220;2022-09-09T06:13:43;16.65;;;2.40;;
41323;SDS011;27073;51.128;4.220;2022-09-09T06:16:09;11.18;;;2.55;;
41323;SDS011;27073;51.128;4.220;2022-09-09T06:18:38;8.85;;;1.73;;
41323;SDS011;27073;51.128;4.220;2022-09-09T06:21:05;10.23;;;2.65;;
41323;SDS011;27073;51.128;4.220;2022-09-09T06:23:34;8.98;;;2.05;;
41323;SDS011;27073;51.128;4.220;2022-09-09T06:26:11;12.85;;;2.63;;
41323;SDS011;27073;51.128;4.220;2022-09-09T06:28:38;16.50;;;2.90;;
41323;SDS011;27073;51.128;4.220;2022-09-09T06:31:07;10.20;;;2.13;;
41323;SDS011;27073;51.128;4.220;2022-09-09T06:33:39;11.23;;;2.13;;
41323;SDS011;27073;51.128;4.220;2022-09-09T06:36:14;14.95;;;3.13;;
41323;SDS011;27073;51.128;4.220;2022-09-09T06:38:48;11.90;;;2.28;;
41323;SDS011;27073;51.128;4.220;2022-09-09T06:41:14;10.10;;;2.15;;
41323;SDS011;27073;51.128;4.220;2022-09-09T06:43:44;6.38;;;1.67;;
41323;SDS011;27073;51.128;4.220;2022-09-09T06:46:13;11.75;;;1.55;;
41323;SDS011;27073;51.128;4.220;2022-09-09T06:48:41;13.38;;;2.13;;
41323;SDS011;27073;51.128;4.220;2022-09-09T06:53:37;9.80;;;1.70;;
41323;SDS011;27073;51.128;4.220;2022-09-09T06:58:37;8.07;;;1.73;;
41323;SDS011;27073;51.128;4.220;2022-09-09T07:01:11;9.85;;;2.63;;
41323;SDS011;27073;51.128;4.220;2022-09-09T07:03:39;17.15;;;2.40;;
41323;SDS011;27073;51.128;4.220;2022-09-09T07:06:06;5.25;;;1.40;;
41323;SDS011;27073;51.128;4.220;2022-09-09T07:08:34;9.95;;;2.65;;
41323;SDS011;27073;51.128;4.220;2022-09-09T07:11:04;8.40;;;2.03;;
41323;SDS011;27073;51.128;4.220;2022-09-09T07:13:33;8.57;;;1.88;;
41323;SDS011;27073;51.128;4.220;2022-09-09T07:16:13;9.85;;;1.55;;
41323;SDS011;27073;51.128;4.220;2022-09-09T07:18:41;11.07;;;2.05;;
41323;SDS011;27073;51.128;4.220;2022-09-09T07:21:09;10.70;;;2.05;;
41323;SDS011;27073;51.128;4.220;2022-09-09T07:23:37;8.55;;;1.70;;
41323;SDS011;27073;51.128;4.220;2022-09-09T07:26:07;9.15;;;1.50;;
41323;SDS011;27073;51.128;4.220;2022-09-09T07:28:42;8.95;;;2.15;;
41323;SDS011;27073;51.128;4.220;2022-09-09T07:31:19;10.40;;;1.90;;
41323;SDS011;27073;51.128;4.220;2022-09-09T07:33:46;10.55;;;2.17;;
41323;SDS011;27073;51.128;4.220;2022-09-09T07:36:15;9.65;;;1.77;;
41323;SDS011;27073;51.128;4.220;2022-09-09T07:38:54;8.50;;;1.88;;
41323;SDS011;27073;51.128;4.220;2022-09-09T07:41:27;10.88;;;1.80;;
41323;SDS011;27073;51.128;4.220;2022-09-09T07:43:53;11.02;;;1.75;;
41323;SDS011;27073;51.128;4.220;2022-09-09T07:46:20;10.48;;;2.70;;
41323;SDS011;27073;51.128;4.220;2022-09-09T07:48:51;11.07;;;2.28;;
41323;SDS011;27073;51.128;4.220;2022-09-09T07:51:24;7.22;;;1.98;;
41323;SDS011;27073;51.128;4.220;2022-09-09T07:53:58;10.70;;;1.98;;
41323;SDS011;27073;51.128;4.220;2022-09-09T07:56:26;11.25;;;1.88;;
41323;SDS011;27073;51.128;4.220;2022-09-09T07:58:54;8.52;;;1.65;;
41323;SDS011;27073;51.128;4.220;2022-09-09T08:01:22;11.00;;;1.95;;
41323;SDS011;27073;51.128;4.220;2022-09-09T08:03:54;9.98;;;1.98;;
41323;SDS011;27073;51.128;4.220;2022-09-09T08:06:25;9.88;;;1.80;;
41323;SDS011;27073;51.128;4.220;2022-09-09T08:08:52;7.22;;;2.65;;
41323;SDS011;27073;51.128;4.220;2022-09-09T08:11:22;11.68;;;2.00;;
41323;SDS011;27073;51.128;4.220;2022-09-09T08:13:49;9.55;;;2.42;;
41323;SDS011;27073;51.128;4.220;2022-09-09T08:16:17;8.88;;;1.40;;
41323;SDS011;27073;51.128;4.220;2022-09-09T08:21:22;12.95;;;2.10;;
41323;SDS011;27073;51.128;4.220;2022-09-09T08:23:55;10.52;;;1.15;;
41323;SDS011;27073;51.128;4.220;2022-09-09T08:26:23;8.85;;;1.60;;
41323;SDS011;27073;51.128;4.220;2022-09-09T08:28:52;9.55;;;2.28;;
41323;SDS011;27073;51.128;4.220;2022-09-09T08:31:20;7.65;;;2.22;;
41323;SDS011;27073;51.128;4.220;2022-09-09T08:33:47;8.88;;;1.50;;
41323;SDS011;27073;51.128;4.220;2022-09-09T08:36:15;8.30;;;2.00;;
41323;SDS011;27073;51.128;4.220;2022-09-09T08:38:43;7.40;;;2.13;;
41323;SDS011;27073;51.128;4.220;2022-09-09T08:44:03;9.50;;;1.92;;
41323;SDS011;27073;51.128;4.220;2022-09-09T08:50:34;7.97;;;1.58;;
41323;SDS011;27073;51.128;4.220;2022-09-09T08:53:04;6.20;;;2.65;;
41323;SDS011;27073;51.128;4.220;2022-09-09T08:56:01;9.65;;;1.85;;
41323;SDS011;27073;51.128;4.220;2022-09-09T08:58:53;9.95;;;1.80;;
41323;SDS011;27073;51.128;4.220;2022-09-09T09:01:52;11.90;;;2.40;;
41323;SDS011;27073;51.128;4.220;2022-09-09T09:07:22;5.65;;;1.30;;
41323;SDS011;27073;51.128;4.220;2022-09-09T09:10:51;13.00;;;2.28;;
41323;SDS011;27073;51.128;4.220;2022-09-09T09:16:03;5.95;;;1.60;;
41323;SDS011;27073;51.128;4.220;2022-09-09T09:18:39;6.38;;;1.33;;
41323;SDS011;27073;51.128;4.220;2022-09-09T09:23:57;10.07;;;1.80;;
41323;SDS011;27073;51.128;4.220;2022-09-09T09:26:30;12.77;;;3.10;;
41323;SDS011;27073;51.128;4.220;2022-09-09T09:28:59;5.88;;;1.60;;
41323;SDS011;27073;51.128;4.220;2022-09-09T09:31:32;7.40;;;1.75;;
41323;SDS011;27073;51.128;4.220;2022-09-09T09:33:58;8.15;;;1.65;;
41323;SDS011;27073;51.128;4.220;2022-09-09T09:36:39;6.22;;;2.15;;
41323;SDS011;27073;51.128;4.220;2022-09-09T09:39:32;8.25;;;1.80;;
41323;SDS011;27073;51.128;4.220;2022-09-09T09:42:12;8.32;;;1.88;;
41323;SDS011;27073;51.128;4.220;2022-09-09T09:44:40;7.97;;;1.52;;
41323;SDS011;27073;51.128;4.220;2022-09-09T09:47:25;6.47;;;1.55;;
41323;SDS011;27073;51.128;4.220;2022-09-09T09:50:16;8.07;;;1.35;;
41323;SDS011;27073;51.128;4.220;2022-09-09T09:52:53;8.70;;;2.30;;
41323;SDS011;27073;51.128;4.220;2022-09-09T09:55:21;7.20;;;1.30;;
41323;SDS011;27073;51.128;4.220;2022-09-09T09:57:50;5.47;;;1.00;;
41323;SDS011;27073;51.128;4.220;2022-09-09T10:00:18;8.15;;;2.13;;
41323;SDS011;27073;51.128;4.220;2022-09-09T10:05:28;9.47;;;1.97;;
41323;SDS011;27073;51.128;4.220;2022-09-09T10:10:37;4.72;;;1.30;;
41323;SDS011;27073;51.128;4.220;2022-09-09T10:17:00;8.23;;;1.92;;
41323;SDS011;27073;51.128;4.220;2022-09-09T10:19:21;5.85;;;1.70;;
41323;SDS011;27073;51.128;4.220;2022-09-09T10:22:02;8.45;;;2.53;;
41323;SDS011;27073;51.128;4.220;2022-09-09T10:32:45;5.38;;;2.17;;
41323;SDS011;27073;51.128;4.220;2022-09-09T10:35:31;4.80;;;1.73;;
41323;SDS011;27073;51.128;4.220;2022-09-09T10:55:26;3.95;;;0.93;;
41323;SDS011;27073;51.128;4.220;2022-09-09T10:57:46;7.03;;;1.35;;
41323;SDS011;27073;51.128;4.220;2022-09-09T11:02:44;5.65;;;0.98;;
41323;SDS011;27073;51.128;4.220;2022-09-09T11:08:21;6.60;;;1.40;;
41323;SDS011;27073;51.128;4.220;2022-09-09T11:11:10;4.70;;;1.30;;
41323;SDS011;27073;51.128;4.220;2022-09-09T11:16:27;5.82;;;1.13;;
41323;SDS011;27073;51.128;4.220;2022-09-09T11:22:12;3.35;;;1.20;;
41323;SDS011;27073;51.128;4.220;2022-09-09T11:24:47;7.35;;;1.88;;
41323;SDS011;27073;51.128;4.220;2022-09-09T11:27:22;5.25;;;1.15;;
41323;SDS011;27073;51.128;4.220;2022-09-09T11:38:28;3.20;;;0.93;;
41323;SDS011;27073;51.128;4.220;2022-09-09T11:41:06;5.40;;;1.10;;
41323;SDS011;27073;51.128;4.220;2022-09-09T11:46:16;5.00;;;1.15;;
41323;SDS011;27073;51.128;4.220;2022-09-09T11:48:56;3.40;;;0.98;;
41323;SDS011;27073;51.128;4.220;2022-09-09T11:51:45;4.82;;;1.38;;
41323;SDS011;27073;51.128;4.220;2022-09-09T11:54:30;3.17;;;0.80;;
41323;SDS011;27073;51.128;4.220;2022-09-09T11:56:57;5.47;;;0.90;;
41323;SDS011;27073;51.128;4.220;2022-09-09T12:01:57;3.10;;;0.95;;
41323;SDS011;27073;51.128;4.220;2022-09-09T12:04:28;2.83;;;0.82;;
41323;SDS011;27073;51.128;4.220;2022-09-09T12:12:36;3.08;;;0.88;;
41323;SDS011;27073;51.128;4.220;2022-09-09T12:17:36;6.00;;;0.90;;
41323;SDS011;27073;51.128;4.220;2022-09-09T12:20:18;3.63;;;1.10;;
41323;SDS011;27073;51.128;4.220;2022-09-09T12:25:52;5.75;;;1.15;;
41323;SDS011;27073;51.128;4.220;2022-09-09T12:28:27;3.88;;;1.10;;
41323;SDS011;27073;51.128;4.220;2022-09-09T12:33:35;4.53;;;1.08;;
41323;SDS011;27073;51.128;4.220;2022-09-09T12:36:04;3.80;;;1.10;;
41323;SDS011;27073;51.128;4.220;2022-09-09T12:38:37;5.40;;;1.70;;
41323;SDS011;27073;51.128;4.220;2022-09-09T12:41:06;4.40;;;1.10;;
41323;SDS011;27073;51.128;4.220;2022-09-09T12:43:44;3.60;;;0.90;;
41323;SDS011;27073;51.128;4.220;2022-09-09T12:46:11;3.28;;;0.68;;
41323;SDS011;27073;51.128;4.220;2022-09-09T12:48:58;4.85;;;0.80;;
41323;SDS011;27073;51.128;4.220;2022-09-09T12:51:26;3.97;;;0.80;;
41323;SDS011;27073;51.128;4.220;2022-09-09T12:53:54;1.88;;;0.50;;
41323;SDS011;27073;51.128;4.220;2022-09-09T12:56:21;2.95;;;1.30;;
41323;SDS011;27073;51.128;4.220;2022-09-09T12:58:51;4.03;;;1.08;;
41323;SDS011;27073;51.128;4.220;2022-09-09T13:01:27;5.70;;;0.80;;
41323;SDS011;27073;51.128;4.220;2022-09-09T13:03:55;4.40;;;1.38;;
41323;SDS011;27073;51.128;4.220;2022-09-09T13:06:22;3.53;;;1.00;;
41323;SDS011;27073;51.128;4.220;2022-09-09T13:08:53;3.25;;;1.20;;
41323;SDS011;27073;51.128;4.220;2022-09-09T13:11:21;3.88;;;0.77;;
41323;SDS011;27073;51.128;4.220;2022-09-09T13:13:54;5.18;;;1.20;;
41323;SDS011;27073;51.128;4.220;2022-09-09T13:16:28;3.05;;;0.85;;
41323;SDS011;27073;51.128;4.220;2022-09-09T13:18:59;4.82;;;1.08;;
41323;SDS011;27073;51.128;4.220;2022-09-09T13:21:33;4.00;;;0.98;;
41323;SDS011;27073;51.128;4.220;2022-09-09T13:24:01;4.40;;;1.02;;
41323;SDS011;27073;51.128;4.220;2022-09-09T13:26:29;3.53;;;0.70;;
41323;SDS011;27073;51.128;4.220;2022-09-09T13:28:55;4.30;;;0.90;;
41323;SDS011;27073;51.128;4.220;2022-09-09T13:31:39;2.75;;;1.10;;
41323;SDS011;27073;51.128;4.220;2022-09-09T13:34:13;1.65;;;0.55;;
41323;SDS011;27073;51.128;4.220;2022-09-09T13:36:52;3.63;;;0.82;;
41323;SDS011;27073;51.128;4.220;2022-09-09T13:39:21;3.70;;;1.00;;
41323;SDS011;27073;51.128;4.220;2022-09-09T13:41:48;3.03;;;0.70;;
41323;SDS011;27073;51.128;4.220;2022-09-09T13:44:17;4.47;;;0.80;;
41323;SDS011;27073;51.128;4.220;2022-09-09T13:47:01;4.85;;;1.00;;
41323;SDS011;27073;51.128;4.220;2022-09-09T13:49:29;3.22;;;1.15;;
41323;SDS011;27073;51.128;4.220;2022-09-09T13:52:11;4.38;;;0.90;;
41323;SDS011;27073;51.128;4.220;2022-09-09T13:54:42;4.72;;;1.10;;
41323;SDS011;27073;51.128;4.220;2022-09-09T13:57:14;3.85;;;1.33;;
41323;SDS011;27073;51.128;4.220;2022-09-09T13:59:43;3.92;;;1.00;;
41323;SDS011;27073;51.128;4.220;2022-09-09T14:02:10;4.20;;;0.85;;
41323;SDS011;27073;51.128;4.220;2022-09-09T14:04:36;4.70;;;1.08;;
41323;SDS011;27073;51.128;4.220;2022-09-09T14:07:01;2.65;;;0.95;;
41323;SDS011;27073;51.128;4.220;2022-09-09T14:09:28;5.30;;;0.88;;
41323;SDS011;27073;51.128;4.220;2022-09-09T14:11:54;2.95;;;0.60;;
41323;SDS011;27073;51.128;4.220;2022-09-09T14:14:22;3.75;;;1.27;;
41323;SDS011;27073;51.128;4.220;2022-09-09T14:16:48;3.20;;;0.77;;
41323;SDS011;27073;51.128;4.220;2022-09-09T14:19:14;2.95;;;0.65;;
41323;SDS011;27073;51.128;4.220;2022-09-09T14:21:40;3.50;;;0.90;;
41323;SDS011;27073;51.128;4.220;2022-09-09T14:24:05;3.80;;;0.80;;
41323;SDS011;27073;51.128;4.220;2022-09-09T14:26:31;3.95;;;0.85;;
41323;SDS011;27073;51.128;4.220;2022-09-09T14:28:57;4.43;;;0.70;;
41323;SDS011;27073;51.128;4.220;2022-09-09T14:31:23;4.60;;;1.20;;
41323;SDS011;27073;51.128;4.220;2022-09-09T14:33:50;4.28;;;1.20;;
41323;SDS011;27073;51.128;4.220;2022-09-09T14:36:16;2.63;;;0.70;;
41323;SDS011;27073;51.128;4.220;2022-09-09T14:38:41;4.68;;;1.08;;
41323;SDS011;27073;51.128;4.220;2022-09-09T14:41:11;4.07;;;1.00;;
41323;SDS011;27073;51.128;4.220;2022-09-09T14:46:05;5.22;;;1.00;;
41323;SDS011;27073;51.128;4.220;2022-09-09T14:48:38;4.38;;;1.00;;
41323;SDS011;27073;51.128;4.220;2022-09-09T14:51:10;2.65;;;0.70;;
41323;SDS011;27073;51.128;4.220;2022-09-09T14:53:38;5.82;;;1.10;;
41323;SDS011;27073;51.128;4.220;2022-09-09T14:56:06;4.75;;;1.00;;
41323;SDS011;27073;51.128;4.220;2022-09-09T14:58:39;3.50;;;0.90;;
41323;SDS011;27073;51.128;4.220;2022-09-09T15:01:09;2.17;;;0.60;;
41323;SDS011;27073;51.128;4.220;2022-09-09T15:03:37;6.18;;;1.33;;
41323;SDS011;27073;51.128;4.220;2022-09-09T15:06:13;3.42;;;0.95;;
41323;SDS011;27073;51.128;4.220;2022-09-09T15:08:40;2.20;;;0.80;;
41323;SDS011;27073;51.128;4.220;2022-09-09T15:11:07;4.43;;;0.73;;
41323;SDS011;27073;51.128;4.220;2022-09-09T15:13:35;2.40;;;1.02;;
41323;SDS011;27073;51.128;4.220;2022-09-09T15:16:24;1.98;;;0.50;;
41323;SDS011;27073;51.128;4.220;2022-09-09T15:18:52;2.17;;;0.60;;
41323;SDS011;27073;51.128;4.220;2022-09-09T15:21:20;1.80;;;0.40;;
41323;SDS011;27073;51.128;4.220;2022-09-09T15:23:47;3.20;;;0.60;;
41323;SDS011;27073;51.128;4.220;2022-09-09T15:26:14;2.20;;;0.43;;
41323;SDS011;27073;51.128;4.220;2022-09-09T15:28:40;1.10;;;0.40;;
41323;SDS011;27073;51.128;4.220;2022-09-09T15:33:39;3.80;;;0.95;;
41323;SDS011;27073;51.128;4.220;2022-09-09T15:36:40;5.05;;;1.35;;
41323;SDS011;27073;51.128;4.220;2022-09-09T15:39:06;2.45;;;0.85;;
41323;SDS011;27073;51.128;4.220;2022-09-09T15:41:33;5.60;;;1.30;;
41323;SDS011;27073;51.128;4.220;2022-09-09T15:43:59;6.55;;;1.30;;
41323;SDS011;27073;51.128;4.220;2022-09-09T15:46:49;4.38;;;1.00;;
41323;SDS011;27073;51.128;4.220;2022-09-09T15:49:20;6.00;;;1.35;;
41323;SDS011;27073;51.128;4.220;2022-09-09T15:51:54;5.22;;;1.10;;
41323;SDS011;27073;51.128;4.220;2022-09-09T15:54:22;3.15;;;1.20;;
41323;SDS011;27073;51.128;4.220;2022-09-09T15:56:51;6.13;;;1.58;;
41323;SDS011;27073;51.128;4.220;2022-09-09T15:59:25;3.53;;;1.40;;
41323;SDS011;27073;51.128;4.220;2022-09-09T16:01:55;5.18;;;1.20;;
41323;SDS011;27073;51.128;4.220;2022-09-09T16:04:23;4.95;;;1.58;;
41323;SDS011;27073;51.128;4.220;2022-09-09T16:06:50;4.90;;;1.10;;
41323;SDS011;27073;51.128;4.220;2022-09-09T16:09:22;4.22;;;1.08;;
41323;SDS011;27073;51.128;4.220;2022-09-09T16:11:48;3.90;;;1.30;;
41323;SDS011;27073;51.128;4.220;2022-09-09T16:14:14;6.45;;;1.38;;
41323;SDS011;27073;51.128;4.220;2022-09-09T16:16:41;3.58;;;1.35;;
41323;SDS011;27073;51.128;4.220;2022-09-09T16:19:08;6.00;;;1.60;;
41323;SDS011;27073;51.128;4.220;2022-09-09T16:21:41;5.70;;;1.90;;
41323;SDS011;27073;51.128;4.220;2022-09-09T16:24:13;3.38;;;1.45;;
41323;SDS011;27073;51.128;4.220;2022-09-09T16:26:41;8.20;;;2.05;;
41323;SDS011;27073;51.128;4.220;2022-09-09T16:29:12;7.80;;;1.85;;
41323;SDS011;27073;51.128;4.220;2022-09-09T16:31:39;7.90;;;2.28;;
41323;SDS011;27073;51.128;4.220;2022-09-09T16:34:05;4.65;;;1.90;;
41323;SDS011;27073;51.128;4.220;2022-09-09T16:36:32;4.57;;;2.28;;
41323;SDS011;27073;51.128;4.220;2022-09-09T16:39:00;8.32;;;2.47;;
41323;SDS011;27073;51.128;4.220;2022-09-09T16:41:28;7.82;;;2.33;;
41323;SDS011;27073;51.128;4.220;2022-09-09T16:46:24;6.40;;;2.60;;
41323;SDS011;27073;51.128;4.220;2022-09-09T16:48:52;7.15;;;2.45;;
41323;SDS011;27073;51.128;4.220;2022-09-09T16:51:24;4.75;;;1.70;;
41323;SDS011;27073;51.128;4.220;2022-09-09T16:53:52;4.28;;;1.58;;
41323;SDS011;27073;51.128;4.220;2022-09-09T16:56:20;4.20;;;1.58;;
41323;SDS011;27073;51.128;4.220;2022-09-09T16:58:51;4.63;;;1.85;;
41323;SDS011;27073;51.128;4.220;2022-09-09T17:01:21;4.55;;;1.85;;
41323;SDS011;27073;51.128;4.220;2022-09-09T17:03:56;3.03;;;1.70;;
41323;SDS011;27073;51.128;4.220;2022-09-09T17:06:23;5.80;;;1.90;;
41323;SDS011;27073;51.128;4.220;2022-09-09T17:08:54;6.72;;;2.13;;
41323;SDS011;27073;51.128;4.220;2022-09-09T17:11:20;6.38;;;2.40;;
41323;SDS011;27073;51.128;4.220;2022-09-09T17:13:46;10.10;;;2.53;;
41323;SDS011;27073;51.128;4.220;2022-09-09T17:16:13;5.50;;;2.17;;
41323;SDS011;27073;51.128;4.220;2022-09-09T17:18:41;7.40;;;2.53;;
41323;SDS011;27073;51.128;4.220;2022-09-09T17:21:08;6.65;;;2.80;;
41323;SDS011;27073;51.128;4.220;2022-09-09T17:26:05;7.00;;;2.83;;
41323;SDS011;27073;51.128;4.220;2022-09-09T17:28:33;12.70;;;2.75;;
41323;SDS011;27073;51.128;4.220;2022-09-09T17:31:00;11.10;;;3.30;;
41323;SDS011;27073;51.128;4.220;2022-09-09T17:33:28;7.22;;;3.08;;
41323;SDS011;27073;51.128;4.220;2022-09-09T17:36:02;10.10;;;3.10;;
41323;SDS011;27073;51.128;4.220;2022-09-09T17:38:39;6.90;;;2.83;;
41323;SDS011;27073;51.128;4.220;2022-09-09T17:41:15;10.20;;;3.67;;
41323;SDS011;27073;51.128;4.220;2022-09-09T17:43:43;9.20;;;2.80;;